sensor_id;sensor_type;location;lat;lon;timestamp;P1;durP1;ratioP1;P2;durP2;ratioP2
21120;SDS011;12519;43.318;21.898;2023-09-19T00:02:39;7.0;;;7.0;;
21120;SDS011;12519;43.318;21.898;2023-09-19T00:07:15;10.0;;;8.0;;
21120;SDS011;12519;43.318;21.898;2023-09-19T00:11:51;10.0;;;8.0;;
21120;SDS011;12519;43.318;21.898;2023-09-19T00:16:28;13.0;;;8.0;;
21120;SDS011;12519;43.318;21.898;2023-09-19T00:21:04;13.0;;;8.0;;
21120;SDS011;12519;43.318;21.898;2023-09-19T00:25:40;11.0;;;8.0;;
21120;SDS011;12519;43.318;21.898;2023-09-19T00:30:16;11.0;;;8.0;;
21120;SDS011;12519;43.318;21.898;2023-09-19T00:34:54;9.0;;;8.0;;
21120;SDS011;12519;43.318;21.898;2023-09-19T00:39:30;9.0;;;8.0;;
21120;SDS011;12519;43.318;21.898;2023-09-19T00:44:07;8.0;;;7.0;;
21120;SDS011;12519;43.318;21.898;2023-09-19T00:48:44;8.0;;;7.0;;
21120;SDS011;12519;43.318;21.898;2023-09-19T00:53:24;8.0;;;7.0;;
21120;SDS011;12519;43.318;21.898;2023-09-19T00:58:02;7.0;;;6.0;;
21120;SDS011;12519;43.318;21.898;2023-09-19T01:02:41;7.0;;;6.0;;
21120;SDS011;12519;43.318;21.898;2023-09-19T01:07:19;8.0;;;6.0;;
21120;SDS011;12519;43.318;21.898;2023-09-19T01:12:05;8.0;;;6.0;;
21120;SDS011;12519;43.318;21.898;2023-09-19T01:17:04;9.0;;;7.0;;
21120;SDS011;12519;43.318;21.898;2023-09-19T01:22:23;9.0;;;7.0;;
21120;SDS011;12519;43.318;21.898;2023-09-19T01:28:10;8.0;;;6.0;;
21120;SDS011;12519;43.318;21.898;2023-09-19T01:33:10;8.0;;;6.0;;
21120;SDS011;12519;43.318;21.898;2023-09-19T01:37:47;7.0;;;6.0;;
21120;SDS011;12519;43.318;21.898;2023-09-19T01:42:37;7.0;;;6.0;;
21120;SDS011;12519;43.318;21.898;2023-09-19T01:47:37;8.0;;;6.0;;
21120;SDS011;12519;43.318;21.898;2023-09-19T01:52:41;8.0;;;6.0;;
21120;SDS011;12519;43.318;21.898;2023-09-19T01:58:01;8.0;;;7.0;;
21120;SDS011;12519;43.318;21.898;2023-09-19T02:03:09;8.0;;;7.0;;
21120;SDS011;12519;43.318;21.898;2023-09-19T02:07:51;6.0;;;6.0;;
21120;SDS011;12519;43.318;21.898;2023-09-19T02:12:29;6.0;;;6.0;;
21120;SDS011;12519;43.318;21.898;2023-09-19T02:17:06;5.0;;;5.0;;
21120;SDS011;12519;43.318;21.898;2023-09-19T02:21:43;5.0;;;5.0;;
21120;SDS011;12519;43.318;21.898;2023-09-19T02:26:19;6.0;;;5.0;;
21120;SDS011;12519;43.318;21.898;2023-09-19T02:30:56;6.0;;;5.0;;
21120;SDS011;12519;43.318;21.898;2023-09-19T02:35:33;7.0;;;5.0;;
21120;SDS011;12519;43.318;21.898;2023-09-19T02:40:11;7.0;;;5.0;;
21120;SDS011;12519;43.318;21.898;2023-09-19T02:44:47;6.0;;;6.0;;
21120;SDS011;12519;43.318;21.898;2023-09-19T02:49:24;6.0;;;6.0;;
21120;SDS011;12519;43.318;21.898;2023-09-19T02:54:01;6.0;;;6.0;;
21120;SDS011;12519;43.318;21.898;2023-09-19T02:58:37;6.0;;;6.0;;
21120;SDS011;12519;43.318;21.898;2023-09-19T03:03:14;6.0;;;6.0;;
21120;SDS011;12519;43.318;21.898;2023-09-19T03:07:50;7.0;;;6.0;;
21120;SDS011;12519;43.318;21.898;2023-09-19T03:12:27;7.0;;;6.0;;
21120;SDS011;12519;43.318;21.898;2023-09-19T03:17:04;8.0;;;6.0;;
21120;SDS011;12519;43.318;21.898;2023-09-19T03:21:40;8.0;;;6.0;;
21120;SDS011;12519;43.318;21.898;2023-09-19T03:26:17;7.0;;;6.0;;
21120;SDS011;12519;43.318;21.898;2023-09-19T03:31:04;7.0;;;6.0;;
21120;SDS011;12519;43.318;21.898;2023-09-19T03:35:43;6.0;;;5.0;;
21120;SDS011;12519;43.318;21.898;2023-09-19T03:40:30;6.0;;;5.0;;
21120;SDS011;12519;43.318;21.898;2023-09-19T03:45:08;7.0;;;6.0;;
21120;SDS011;12519;43.318;21.898;2023-09-19T03:49:46;7.0;;;6.0;;
21120;SDS011;12519;43.318;21.898;2023-09-19T03:54:23;8.0;;;6.0;;
21120;SDS011;12519;43.318;21.898;2023-09-19T03:59:00;8.0;;;6.0;;
21120;SDS011;12519;43.318;21.898;2023-09-19T04:03:36;8.0;;;6.0;;
21120;SDS011;12519;43.318;21.898;2023-09-19T04:08:13;7.0;;;6.0;;
21120;SDS011;12519;43.318;21.898;2023-09-19T04:12:52;7.0;;;6.0;;
21120;SDS011;12519;43.318;21.898;2023-09-19T04:17:31;6.0;;;6.0;;
21120;SDS011;12519;43.318;21.898;2023-09-19T04:22:07;6.0;;;6.0;;
21120;SDS011;12519;43.318;21.898;2023-09-19T04:26:44;6.0;;;6.0;;
21120;SDS011;12519;43.318;21.898;2023-09-19T04:31:21;6.0;;;6.0;;
21120;SDS011;12519;43.318;21.898;2023-09-19T04:35:58;6.0;;;6.0;;
21120;SDS011;12519;43.318;21.898;2023-09-19T04:40:35;6.0;;;6.0;;
21120;SDS011;12519;43.318;21.898;2023-09-19T04:45:12;6.0;;;6.0;;
21120;SDS011;12519;43.318;21.898;2023-09-19T04:49:49;6.0;;;6.0;;
21120;SDS011;12519;43.318;21.898;2023-09-19T04:54:25;6.0;;;6.0;;
21120;SDS011;12519;43.318;21.898;2023-09-19T04:59:02;6.0;;;6.0;;
21120;SDS011;12519;43.318;21.898;2023-09-19T05:03:38;6.0;;;6.0;;
21120;SDS011;12519;43.318;21.898;2023-09-19T05:08:15;6.0;;;6.0;;
21120;SDS011;12519;43.318;21.898;2023-09-19T05:12:53;6.0;;;6.0;;
21120;SDS011;12519;43.318;21.898;2023-09-19T05:17:31;7.0;;;6.0;;
21120;SDS011;12519;43.318;21.898;2023-09-19T05:22:07;7.0;;;6.0;;
21120;SDS011;12519;43.318;21.898;2023-09-19T05:26:43;7.0;;;6.0;;
21120;SDS011;12519;43.318;21.898;2023-09-19T05:31:19;7.0;;;6.0;;
21120;SDS011;12519;43.318;21.898;2023-09-19T05:35:55;7.0;;;6.0;;
21120;SDS011;12519;43.318;21.898;2023-09-19T05:40:31;7.0;;;6.0;;
21120;SDS011;12519;43.318;21.898;2023-09-19T05:45:09;8.0;;;7.0;;
21120;SDS011;12519;43.318;21.898;2023-09-19T05:49:45;8.0;;;7.0;;
21120;SDS011;12519;43.318;21.898;2023-09-19T05:54:22;8.0;;;7.0;;
21120;SDS011;12519;43.318;21.898;2023-09-19T05:58:58;9.0;;;8.0;;
21120;SDS011;12519;43.318;21.898;2023-09-19T06:03:35;9.0;;;8.0;;
21120;SDS011;12519;43.318;21.898;2023-09-19T06:08:12;10.0;;;8.0;;
21120;SDS011;12519;43.318;21.898;2023-09-19T06:12:48;10.0;;;8.0;;
21120;SDS011;12519;43.318;21.898;2023-09-19T06:17:25;10.0;;;7.0;;
21120;SDS011;12519;43.318;21.898;2023-09-19T06:22:03;10.0;;;7.0;;
21120;SDS011;12519;43.318;21.898;2023-09-19T06:26:39;9.0;;;7.0;;
21120;SDS011;12519;43.318;21.898;2023-09-19T06:31:16;9.0;;;7.0;;
21120;SDS011;12519;43.318;21.898;2023-09-19T06:35:52;8.0;;;7.0;;
21120;SDS011;12519;43.318;21.898;2023-09-19T06:40:30;8.0;;;7.0;;
21120;SDS011;12519;43.318;21.898;2023-09-19T06:45:09;8.0;;;7.0;;
21120;SDS011;12519;43.318;21.898;2023-09-19T06:49:46;8.0;;;7.0;;
21120;SDS011;12519;43.318;21.898;2023-09-19T06:54:22;8.0;;;7.0;;
21120;SDS011;12519;43.318;21.898;2023-09-19T06:58:58;9.0;;;7.0;;
21120;SDS011;12519;43.318;21.898;2023-09-19T07:03:35;9.0;;;7.0;;
21120;SDS011;12519;43.318;21.898;2023-09-19T07:08:11;8.0;;;7.0;;
21120;SDS011;12519;43.318;21.898;2023-09-19T07:12:56;8.0;;;7.0;;
21120;SDS011;12519;43.318;21.898;2023-09-19T07:17:34;7.0;;;7.0;;
21120;SDS011;12519;43.318;21.898;2023-09-19T07:22:10;7.0;;;7.0;;
21120;SDS011;12519;43.318;21.898;2023-09-19T07:26:47;8.0;;;7.0;;
21120;SDS011;12519;43.318;21.898;2023-09-19T07:31:23;8.0;;;7.0;;
21120;SDS011;12519;43.318;21.898;2023-09-19T07:36:00;8.0;;;7.0;;
21120;SDS011;12519;43.318;21.898;2023-09-19T07:40:36;8.0;;;7.0;;
21120;SDS011;12519;43.318;21.898;2023-09-19T07:45:13;8.0;;;7.0;;
21120;SDS011;12519;43.318;21.898;2023-09-19T07:49:50;8.0;;;7.0;;
21120;SDS011;12519;43.318;21.898;2023-09-19T07:54:26;8.0;;;7.0;;
21120;SDS011;12519;43.318;21.898;2023-09-19T07:59:03;8.0;;;7.0;;
21120;SDS011;12519;43.318;21.898;2023-09-19T08:03:40;8.0;;;7.0;;
21120;SDS011;12519;43.318;21.898;2023-09-19T08:08:16;8.0;;;8.0;;
21120;SDS011;12519;43.318;21.898;2023-09-19T08:12:52;8.0;;;8.0;;
21120;SDS011;12519;43.318;21.898;2023-09-19T08:17:31;9.0;;;8.0;;
21120;SDS011;12519;43.318;21.898;2023-09-19T08:22:10;9.0;;;8.0;;
21120;SDS011;12519;43.318;21.898;2023-09-19T08:26:46;9.0;;;8.0;;
21120;SDS011;12519;43.318;21.898;2023-09-19T08:31:23;9.0;;;8.0;;
21120;SDS011;12519;43.318;21.898;2023-09-19T08:36:00;9.0;;;8.0;;
21120;SDS011;12519;43.318;21.898;2023-09-19T08:40:38;9.0;;;8.0;;
21120;SDS011;12519;43.318;21.898;2023-09-19T08:45:15;10.0;;;8.0;;
21120;SDS011;12519;43.318;21.898;2023-09-19T08:50:12;10.0;;;8.0;;
21120;SDS011;12519;43.318;21.898;2023-09-19T08:55:12;10.0;;;8.0;;
21120;SDS011;12519;43.318;21.898;2023-09-19T08:59:52;10.0;;;8.0;;
21120;SDS011;12519;43.318;21.898;2023-09-19T09:04:32;10.0;;;8.0;;
21120;SDS011;12519;43.318;21.898;2023-09-19T09:09:11;9.0;;;8.0;;
21120;SDS011;12519;43.318;21.898;2023-09-19T09:13:48;9.0;;;8.0;;
21120;SDS011;12519;43.318;21.898;2023-09-19T09:18:25;8.0;;;7.0;;
21120;SDS011;12519;43.318;21.898;2023-09-19T09:23:01;8.0;;;7.0;;
21120;SDS011;12519;43.318;21.898;2023-09-19T09:27:40;8.0;;;8.0;;
21120;SDS011;12519;43.318;21.898;2023-09-19T09:32:21;8.0;;;8.0;;
21120;SDS011;12519;43.318;21.898;2023-09-19T09:37:03;8.0;;;8.0;;
21120;SDS011;12519;43.318;21.898;2023-09-19T09:41:40;8.0;;;8.0;;
21120;SDS011;12519;43.318;21.898;2023-09-19T09:46:22;8.0;;;8.0;;
21120;SDS011;12519;43.318;21.898;2023-09-19T09:50:59;8.0;;;8.0;;
21120;SDS011;12519;43.318;21.898;2023-09-19T09:56:01;8.0;;;7.0;;
21120;SDS011;12519;43.318;21.898;2023-09-19T10:00:53;8.0;;;7.0;;
21120;SDS011;12519;43.318;21.898;2023-09-19T10:05:33;8.0;;;7.0;;
21120;SDS011;12519;43.318;21.898;2023-09-19T10:10:10;8.0;;;7.0;;
21120;SDS011;12519;43.318;21.898;2023-09-19T10:14:48;8.0;;;7.0;;
21120;SDS011;12519;43.318;21.898;2023-09-19T10:19:36;8.0;;;7.0;;
21120;SDS011;12519;43.318;21.898;2023-09-19T10:24:36;8.0;;;7.0;;
21120;SDS011;12519;43.318;21.898;2023-09-19T10:29:18;8.0;;;8.0;;
21120;SDS011;12519;43.318;21.898;2023-09-19T10:34:03;8.0;;;8.0;;
21120;SDS011;12519;43.318;21.898;2023-09-19T10:38:49;9.0;;;8.0;;
21120;SDS011;12519;43.318;21.898;2023-09-19T10:43:33;9.0;;;8.0;;
21120;SDS011;12519;43.318;21.898;2023-09-19T10:48:10;9.0;;;8.0;;
21120;SDS011;12519;43.318;21.898;2023-09-19T10:52:48;9.0;;;8.0;;
21120;SDS011;12519;43.318;21.898;2023-09-19T10:57:29;9.0;;;8.0;;
21120;SDS011;12519;43.318;21.898;2023-09-19T11:02:17;9.0;;;8.0;;
21120;SDS011;12519;43.318;21.898;2023-09-19T11:07:05;10.0;;;8.0;;
21120;SDS011;12519;43.318;21.898;2023-09-19T11:11:49;10.0;;;8.0;;
21120;SDS011;12519;43.318;21.898;2023-09-19T11:16:27;12.0;;;8.0;;
21120;SDS011;12519;43.318;21.898;2023-09-19T11:21:52;12.0;;;8.0;;
21120;SDS011;12519;43.318;21.898;2023-09-19T11:26:45;10.0;;;8.0;;
21120;SDS011;12519;43.318;21.898;2023-09-19T11:31:44;10.0;;;8.0;;
21120;SDS011;12519;43.318;21.898;2023-09-19T11:36:35;9.0;;;8.0;;
21120;SDS011;12519;43.318;21.898;2023-09-19T11:41:43;9.0;;;8.0;;
21120;SDS011;12519;43.318;21.898;2023-09-19T11:46:21;9.0;;;8.0;;
21120;SDS011;12519;43.318;21.898;2023-09-19T11:50:58;9.0;;;8.0;;
21120;SDS011;12519;43.318;21.898;2023-09-19T11:55:36;9.0;;;8.0;;
21120;SDS011;12519;43.318;21.898;2023-09-19T12:00:17;9.0;;;8.0;;
21120;SDS011;12519;43.318;21.898;2023-09-19T12:04:54;9.0;;;8.0;;
21120;SDS011;12519;43.318;21.898;2023-09-19T12:09:32;10.0;;;8.0;;
21120;SDS011;12519;43.318;21.898;2023-09-19T12:14:09;10.0;;;8.0;;
21120;SDS011;12519;43.318;21.898;2023-09-19T12:18:46;11.0;;;9.0;;
21120;SDS011;12519;43.318;21.898;2023-09-19T12:23:23;11.0;;;9.0;;
21120;SDS011;12519;43.318;21.898;2023-09-19T12:28:00;10.0;;;9.0;;
21120;SDS011;12519;43.318;21.898;2023-09-19T12:32:37;10.0;;;9.0;;
21120;SDS011;12519;43.318;21.898;2023-09-19T12:37:16;9.0;;;9.0;;
21120;SDS011;12519;43.318;21.898;2023-09-19T12:41:54;9.0;;;9.0;;
21120;SDS011;12519;43.318;21.898;2023-09-19T12:46:31;8.0;;;8.0;;
21120;SDS011;12519;43.318;21.898;2023-09-19T12:51:11;8.0;;;8.0;;
21120;SDS011;12519;43.318;21.898;2023-09-19T12:55:59;8.0;;;7.0;;
21120;SDS011;12519;43.318;21.898;2023-09-19T13:00:40;8.0;;;7.0;;
21120;SDS011;12519;43.318;21.898;2023-09-19T13:05:48;8.0;;;8.0;;
21120;SDS011;12519;43.318;21.898;2023-09-19T13:10:30;8.0;;;8.0;;
21120;SDS011;12519;43.318;21.898;2023-09-19T13:15:08;8.0;;;8.0;;
21120;SDS011;12519;43.318;21.898;2023-09-19T13:19:51;8.0;;;8.0;;
21120;SDS011;12519;43.318;21.898;2023-09-19T13:24:28;8.0;;;8.0;;
21120;SDS011;12519;43.318;21.898;2023-09-19T13:29:04;8.0;;;8.0;;
21120;SDS011;12519;43.318;21.898;2023-09-19T13:33:44;8.0;;;8.0;;
21120;SDS011;12519;43.318;21.898;2023-09-19T13:38:23;8.0;;;8.0;;
21120;SDS011;12519;43.318;21.898;2023-09-19T13:42:59;8.0;;;8.0;;
21120;SDS011;12519;43.318;21.898;2023-09-19T13:47:35;10.0;;;10.0;;
21120;SDS011;12519;43.318;21.898;2023-09-19T13:52:11;10.0;;;10.0;;
21120;SDS011;12519;43.318;21.898;2023-09-19T13:56:48;12.0;;;11.0;;
21120;SDS011;12519;43.318;21.898;2023-09-19T14:01:24;12.0;;;11.0;;
21120;SDS011;12519;43.318;21.898;2023-09-19T14:06:00;12.0;;;10.0;;
21120;SDS011;12519;43.318;21.898;2023-09-19T14:10:37;12.0;;;10.0;;
21120;SDS011;12519;43.318;21.898;2023-09-19T14:15:14;12.0;;;10.0;;
21120;SDS011;12519;43.318;21.898;2023-09-19T14:19:50;11.0;;;9.0;;
21120;SDS011;12519;43.318;21.898;2023-09-19T14:24:26;11.0;;;9.0;;
21120;SDS011;12519;43.318;21.898;2023-09-19T14:29:03;12.0;;;10.0;;
21120;SDS011;12519;43.318;21.898;2023-09-19T14:33:41;12.0;;;10.0;;
21120;SDS011;12519;43.318;21.898;2023-09-19T14:38:17;14.0;;;12.0;;
21120;SDS011;12519;43.318;21.898;2023-09-19T14:42:54;14.0;;;12.0;;
21120;SDS011;12519;43.318;21.898;2023-09-19T14:47:30;15.0;;;12.0;;
21120;SDS011;12519;43.318;21.898;2023-09-19T14:52:11;15.0;;;12.0;;
21120;SDS011;12519;43.318;21.898;2023-09-19T14:56:47;16.0;;;11.0;;
21120;SDS011;12519;43.318;21.898;2023-09-19T15:01:24;16.0;;;11.0;;
21120;SDS011;12519;43.318;21.898;2023-09-19T15:06:04;14.0;;;10.0;;
21120;SDS011;12519;43.318;21.898;2023-09-19T15:10:50;14.0;;;10.0;;
21120;SDS011;12519;43.318;21.898;2023-09-19T15:15:27;14.0;;;10.0;;
21120;SDS011;12519;43.318;21.898;2023-09-19T15:20:06;11.0;;;9.0;;
21120;SDS011;12519;43.318;21.898;2023-09-19T15:24:46;11.0;;;9.0;;
21120;SDS011;12519;43.318;21.898;2023-09-19T15:29:22;10.0;;;9.0;;
21120;SDS011;12519;43.318;21.898;2023-09-19T15:33:59;10.0;;;9.0;;
21120;SDS011;12519;43.318;21.898;2023-09-19T15:39:08;9.0;;;9.0;;
21120;SDS011;12519;43.318;21.898;2023-09-19T15:43:45;9.0;;;9.0;;
21120;SDS011;12519;43.318;21.898;2023-09-19T15:48:22;9.0;;;9.0;;
21120;SDS011;12519;43.318;21.898;2023-09-19T15:52:58;9.0;;;9.0;;
21120;SDS011;12519;43.318;21.898;2023-09-19T15:57:37;9.0;;;9.0;;
21120;SDS011;12519;43.318;21.898;2023-09-19T16:02:14;9.0;;;9.0;;
21120;SDS011;12519;43.318;21.898;2023-09-19T16:06:51;12.0;;;9.0;;
21120;SDS011;12519;43.318;21.898;2023-09-19T16:11:27;12.0;;;9.0;;
21120;SDS011;12519;43.318;21.898;2023-09-19T16:16:04;14.0;;;9.0;;
21120;SDS011;12519;43.318;21.898;2023-09-19T16:20:40;14.0;;;9.0;;
21120;SDS011;12519;43.318;21.898;2023-09-19T16:25:17;14.0;;;9.0;;
21120;SDS011;12519;43.318;21.898;2023-09-19T16:29:53;14.0;;;10.0;;
21120;SDS011;12519;43.318;21.898;2023-09-19T16:34:29;14.0;;;10.0;;
21120;SDS011;12519;43.318;21.898;2023-09-19T16:39:06;15.0;;;10.0;;
21120;SDS011;12519;43.318;21.898;2023-09-19T16:43:42;15.0;;;10.0;;
21120;SDS011;12519;43.318;21.898;2023-09-19T16:48:19;16.0;;;11.0;;
21120;SDS011;12519;43.318;21.898;2023-09-19T16:52:56;16.0;;;11.0;;
21120;SDS011;12519;43.318;21.898;2023-09-19T16:57:32;18.0;;;12.0;;
21120;SDS011;12519;43.318;21.898;2023-09-19T17:02:08;18.0;;;12.0;;
21120;SDS011;12519;43.318;21.898;2023-09-19T17:06:45;16.0;;;13.0;;
21120;SDS011;12519;43.318;21.898;2023-09-19T17:11:21;16.0;;;13.0;;
21120;SDS011;12519;43.318;21.898;2023-09-19T17:16:02;15.0;;;14.0;;
21120;SDS011;12519;43.318;21.898;2023-09-19T17:20:45;15.0;;;14.0;;
21120;SDS011;12519;43.318;21.898;2023-09-19T17:25:21;15.0;;;14.0;;
21120;SDS011;12519;43.318;21.898;2023-09-19T17:29:58;16.0;;;14.0;;
21120;SDS011;12519;43.318;21.898;2023-09-19T17:34:35;16.0;;;14.0;;
21120;SDS011;12519;43.318;21.898;2023-09-19T17:39:11;18.0;;;14.0;;
21120;SDS011;12519;43.318;21.898;2023-09-19T17:43:54;18.0;;;14.0;;
21120;SDS011;12519;43.318;21.898;2023-09-19T17:48:35;18.0;;;14.0;;
21120;SDS011;12519;43.318;21.898;2023-09-19T17:53:12;18.0;;;14.0;;
21120;SDS011;12519;43.318;21.898;2023-09-19T17:57:49;18.0;;;13.0;;
21120;SDS011;12519;43.318;21.898;2023-09-19T18:02:25;18.0;;;13.0;;
21120;SDS011;12519;43.318;21.898;2023-09-19T18:07:02;18.0;;;12.0;;
21120;SDS011;12519;43.318;21.898;2023-09-19T18:11:40;18.0;;;12.0;;
21120;SDS011;12519;43.318;21.898;2023-09-19T18:16:17;17.0;;;12.0;;
21120;SDS011;12519;43.318;21.898;2023-09-19T18:20:54;17.0;;;12.0;;
21120;SDS011;12519;43.318;21.898;2023-09-19T18:25:37;17.0;;;12.0;;
21120;SDS011;12519;43.318;21.898;2023-09-19T18:30:14;14.0;;;11.0;;
21120;SDS011;12519;43.318;21.898;2023-09-19T18:34:50;14.0;;;11.0;;
21120;SDS011;12519;43.318;21.898;2023-09-19T18:39:27;10.0;;;10.0;;
21120;SDS011;12519;43.318;21.898;2023-09-19T18:44:05;10.0;;;10.0;;
21120;SDS011;12519;43.318;21.898;2023-09-19T18:48:43;12.0;;;11.0;;
21120;SDS011;12519;43.318;21.898;2023-09-19T18:53:20;12.0;;;11.0;;
21120;SDS011;12519;43.318;21.898;2023-09-19T18:57:56;15.0;;;12.0;;
21120;SDS011;12519;43.318;21.898;2023-09-19T19:02:33;15.0;;;12.0;;
21120;SDS011;12519;43.318;21.898;2023-09-19T19:07:09;12.0;;;10.0;;
21120;SDS011;12519;43.318;21.898;2023-09-19T19:11:45;12.0;;;10.0;;
21120;SDS011;12519;43.318;21.898;2023-09-19T19:16:22;10.0;;;9.0;;
21120;SDS011;12519;43.318;21.898;2023-09-19T19:20:59;10.0;;;9.0;;
21120;SDS011;12519;43.318;21.898;2023-09-19T19:25:47;10.0;;;9.0;;
21120;SDS011;12519;43.318;21.898;2023-09-19T19:30:23;10.0;;;8.0;;
21120;SDS011;12519;43.318;21.898;2023-09-19T19:35:00;10.0;;;8.0;;
21120;SDS011;12519;43.318;21.898;2023-09-19T19:39:36;10.0;;;7.0;;
21120;SDS011;12519;43.318;21.898;2023-09-19T19:44:14;10.0;;;7.0;;
21120;SDS011;12519;43.318;21.898;2023-09-19T19:48:51;14.0;;;10.0;;
21120;SDS011;12519;43.318;21.898;2023-09-19T19:53:27;14.0;;;10.0;;
21120;SDS011;12519;43.318;21.898;2023-09-19T19:58:04;17.0;;;12.0;;
21120;SDS011;12519;43.318;21.898;2023-09-19T20:02:43;17.0;;;12.0;;
21120;SDS011;12519;43.318;21.898;2023-09-19T20:07:20;14.0;;;10.0;;
21120;SDS011;12519;43.318;21.898;2023-09-19T20:11:56;14.0;;;10.0;;
21120;SDS011;12519;43.318;21.898;2023-09-19T20:16:33;12.0;;;9.0;;
21120;SDS011;12519;43.318;21.898;2023-09-19T20:21:11;12.0;;;9.0;;
21120;SDS011;12519;43.318;21.898;2023-09-19T20:25:48;12.0;;;9.0;;
21120;SDS011;12519;43.318;21.898;2023-09-19T20:30:25;10.0;;;8.0;;
21120;SDS011;12519;43.318;21.898;2023-09-19T20:35:02;10.0;;;8.0;;
21120;SDS011;12519;43.318;21.898;2023-09-19T20:39:43;9.0;;;8.0;;
21120;SDS011;12519;43.318;21.898;2023-09-19T20:44:19;9.0;;;8.0;;
21120;SDS011;12519;43.318;21.898;2023-09-19T20:48:56;10.0;;;10.0;;
21120;SDS011;12519;43.318;21.898;2023-09-19T20:53:32;10.0;;;10.0;;
21120;SDS011;12519;43.318;21.898;2023-09-19T20:58:12;12.0;;;11.0;;
21120;SDS011;12519;43.318;21.898;2023-09-19T21:02:48;12.0;;;11.0;;
21120;SDS011;12519;43.318;21.898;2023-09-19T21:07:25;14.0;;;12.0;;
21120;SDS011;12519;43.318;21.898;2023-09-19T21:12:01;14.0;;;12.0;;
21120;SDS011;12519;43.318;21.898;2023-09-19T21:16:38;16.0;;;13.0;;
21120;SDS011;12519;43.318;21.898;2023-09-19T21:21:15;16.0;;;13.0;;
21120;SDS011;12519;43.318;21.898;2023-09-19T21:25:54;16.0;;;13.0;;
21120;SDS011;12519;43.318;21.898;2023-09-19T21:30:30;14.0;;;12.0;;
21120;SDS011;12519;43.318;21.898;2023-09-19T21:35:07;14.0;;;12.0;;
21120;SDS011;12519;43.318;21.898;2023-09-19T21:39:44;12.0;;;11.0;;
21120;SDS011;12519;43.318;21.898;2023-09-19T21:44:20;12.0;;;11.0;;
21120;SDS011;12519;43.318;21.898;2023-09-19T21:48:56;14.0;;;12.0;;
21120;SDS011;12519;43.318;21.898;2023-09-19T21:53:34;14.0;;;12.0;;
21120;SDS011;12519;43.318;21.898;2023-09-19T21:58:11;15.0;;;14.0;;
21120;SDS011;12519;43.318;21.898;2023-09-19T22:02:47;15.0;;;14.0;;
21120;SDS011;12519;43.318;21.898;2023-09-19T22:07:23;14.0;;;13.0;;
21120;SDS011;12519;43.318;21.898;2023-09-19T22:12:00;14.0;;;13.0;;
21120;SDS011;12519;43.318;21.898;2023-09-19T22:16:36;12.0;;;12.0;;
21120;SDS011;12519;43.318;21.898;2023-09-19T22:21:15;12.0;;;12.0;;
21120;SDS011;12519;43.318;21.898;2023-09-19T22:25:55;12.0;;;12.0;;
21120;SDS011;12519;43.318;21.898;2023-09-19T22:30:36;12.0;;;12.0;;
21120;SDS011;12519;43.318;21.898;2023-09-19T22:35:15;12.0;;;12.0;;
21120;SDS011;12519;43.318;21.898;2023-09-19T22:39:52;12.0;;;12.0;;
21120;SDS011;12519;43.318;21.898;2023-09-19T22:44:29;12.0;;;12.0;;
21120;SDS011;12519;43.318;21.898;2023-09-19T22:49:05;12.0;;;11.0;;
21120;SDS011;12519;43.318;21.898;2023-09-19T22:53:41;12.0;;;11.0;;
21120;SDS011;12519;43.318;21.898;2023-09-19T22:58:18;12.0;;;10.0;;
21120;SDS011;12519;43.318;21.898;2023-09-19T23:02:55;12.0;;;10.0;;
21120;SDS011;12519;43.318;21.898;2023-09-19T23:07:31;12.0;;;10.0;;
21120;SDS011;12519;43.318;21.898;2023-09-19T23:12:08;12.0;;;10.0;;
21120;SDS011;12519;43.318;21.898;2023-09-19T23:16:44;12.0;;;11.0;;
21120;SDS011;12519;43.318;21.898;2023-09-19T23:21:21;12.0;;;11.0;;
21120;SDS011;12519;43.318;21.898;2023-09-19T23:25:58;12.0;;;11.0;;
21120;SDS011;12519;43.318;21.898;2023-09-19T23:30:34;14.0;;;10.0;;
21120;SDS011;12519;43.318;21.898;2023-09-19T23:35:10;14.0;;;10.0;;
21120;SDS011;12519;43.318;21.898;2023-09-19T23:39:47;15.0;;;9.0;;
21120;SDS011;12519;43.318;21.898;2023-09-19T23:44:23;15.0;;;9.0;;
21120;SDS011;12519;43.318;21.898;2023-09-19T23:49:00;12.0;;;9.0;;
21120;SDS011;12519;43.318;21.898;2023-09-19T23:53:36;12.0;;;9.0;;
21120;SDS011;12519;43.318;21.898;2023-09-19T23:58:13;10.0;;;9.0;;
